ADDS METAR Data INFO
IDs: Format: Raw Decoded Include TAF

Data at: 2337 UTC 25 Feb 2018

KRNP 252315Z AUTO 25012G23KT 10SM CLR 04/M07 A2993 RMK AO2 T00441069
KRNP 252255Z AUTO 25015G25KT 10SM CLR 05/M07 A2991 RMK AO2 T00501070
KRNP 252235Z AUTO 25016G28KT 10SM CLR 06/M07 A2990 RMK AO2 T00561068
KRNP 252215Z AUTO 24016G26KT 10SM CLR 06/M07 A2988 RMK AO2 T00591069
KRNP 252155Z AUTO 25022G31KT 10SM CLR 06/M07 A2987 RMK AO2 T00611067
KRNP 252135Z AUTO 25021G31KT 10SM CLR 07/M06 A2986 RMK AO2 T00651061
KRNP 252115Z AUTO 25017G26KT 10SM CLR 07/M06 A2985 RMK AO2 T00661064
KRNP 252055Z AUTO 24017G30KT 10SM CLR 07/M06 A2984 RMK AO2 T00671063
KRNP 252035Z AUTO 24018G31KT 10SM CLR 07/M05 A2983 RMK AO2 T00701055
KRNP 252015Z AUTO 25019G28KT 10SM CLR 07/M06 A2983 RMK AO2 T00671056
KRNP 251955Z AUTO 24020G26KT 10SM SCT047 07/M05 A2982 RMK AO2 T00701053
KRNP 251935Z AUTO 23019G29KT 10SM SCT047 07/M05 A2982 RMK AO2 T00691050
KRNP 251915Z AUTO 25018G28KT 10SM SCT043 07/M04 A2982 RMK AO2 T00651043
KRNP 251855Z AUTO 24017G30KT 10SM SCT041 06/M04 A2982 RMK AO2 T00631042
KRNP 251835Z AUTO 24020G30KT 10SM SCT039 07/M04 A2981 RMK AO2 T00651043
KRNP 251815Z AUTO 25017G25KT 10SM BKN039 07/M03 A2981 RMK AO2 T00651035
KRNP 251755Z AUTO 23018G30KT 10SM BKN039 06/M04 A2980 RMK AO2 T00591040 10059 20025
KRNP 251735Z AUTO 23019G28KT 10SM SCT035 SCT044 05/M04 A2980 RMK AO2 T00521036
KRNP 251715Z AUTO 23017G27KT 10SM BKN035 BKN041 05/M03 A2980 RMK AO2 T00531031
KRNP 251655Z AUTO 22019G26KT 10SM BKN033 BKN038 05/M03 A2979 RMK AO2 T00461035
KRNP 251635Z AUTO 23018G27KT 10SM BKN030 BKN039 04/M03 A2979 RMK AO2 T00391034
KRNP 251615Z AUTO 25016G33KT 10SM BKN030 BKN035 04/M03 A2977 RMK AO2 T00411035
KRNP 251555Z AUTO 24015G27KT 10SM BKN028 OVC034 04/M03 A2976 RMK AO2 T00381029
KRNP 251535Z AUTO 23019G30KT 10SM OVC028 03/M03 A2974 RMK AO2 T00281033
KRNP 251515Z AUTO 24019G24KT 10SM OVC026 03/M03 A2974 RMK AO2 T00261027
KRNP 251455Z AUTO 24017G26KT 10SM OVC022 03/M02 A2972 RMK AO2 T00251024
KRNP 251435Z AUTO 24013G29KT 10SM OVC024 03/M02 A2971 RMK AO2 T00251021
KRNP 251415Z AUTO 24015G25KT 10SM OVC026 03/M02 A2969 RMK AO2 T00251020
KRNP 251355Z AUTO 25018G29KT 10SM OVC027 03/M02 A2968 RMK AO2 T00251024
KRNP 251335Z AUTO 24016G28KT 10SM BKN027 OVC031 03/M02 A2967 RMK AO2 T00251023
KRNP 251315Z AUTO 24019G28KT 10SM OVC025 03/M02 A2965 RMK AO2 T00281017
KRNP 251255Z AUTO 24022G31KT 10SM OVC025 03/M01 A2964 RMK AO2 T00301012
KRNP 251235Z AUTO 25021G34KT 10SM SCT020 OVC027 03/M01 A2962 RMK AO2 T00321011
KRNP 251215Z AUTO 25021G32KT 10SM BKN020 OVC027 04/00 A2960 RMK AO2 T00370000
KRNP 251155Z AUTO 25022G33KT 10SM OVC017 04/00 A2957 RMK AO2 T00420003 10091 20040
KRNP 251135Z AUTO 25013G30KT 10SM BKN017 OVC024 05/02 A2955 RMK AO2 T00510018
KRNP 251115Z AUTO 24025G32KT 10SM BKN015 BKN021 OVC026 07/04 A2952 RMK AO2 T00660037
KRNP 251055Z AUTO 25017G24KT 10SM -RA BKN014 BKN022 OVC043 09/06 A2948 RMK AO2 T00900064
KRNP 251035Z AUTO 23011G18KT 10SM SCT009 BKN014 OVC034 09/07 A2945 RMK AO2 T00890070
KRNP 251015Z AUTO 21011KT 10SM SCT008 OVC015 08/07 A2943 RMK AO2 T00800066
KRNP 250955Z AUTO 19010KT 4SM DZ BKN008 OVC012 07/06 A2943 RMK AO2 T00710060
KRNP 250935Z AUTO 17010G16KT 4SM BR BKN006 OVC011 07/06 A2943 RMK AO2 T00670056
KRNP 250915Z AUTO 18008G14KT 3SM BR OVC004 06/05 A2943 RMK AO2 T00600048
KRNP 250855Z AUTO 15011G16KT 2 1/2SM BR OVC004 06/05 A2942 RMK AO2 T00550045
KRNP 250835Z AUTO 15010G17KT 2 1/2SM BR OVC004 05/04 A2944 RMK AO2 T00480037
KRNP 250815Z AUTO 15011G17KT 4SM BR OVC004 05/03 A2947 RMK AO2 T00460033
KRNP 250755Z AUTO 14010G20KT 5SM BR OVC004 05/03 A2948 RMK AO2 T00450030
KRNP 250735Z AUTO 14012G18KT 7SM OVC006 04/03 A2950 RMK AO2 T00420027
KRNP 250715Z AUTO 14012G20KT 7SM OVC006 04/03 A2954 RMK AO2 T00410025
KRNP 250655Z AUTO 14011G17KT 7SM OVC006 04/02 A2955 RMK AO2 T00400021
KRNP 250635Z AUTO 13012G19KT 10SM OVC008 04/02 A2957 RMK AO2 T00400020
KRNP 250615Z AUTO 13009KT 10SM OVC008 04/02 A2961 RMK AO2 T00400020
KRNP 250555Z AUTO 13010G19KT 10SM OVC008 04/02 A2962 RMK AO2 T00390018 10039 20020
KRNP 250535Z AUTO 11011KT 10SM OVC010 04/01 A2963 RMK AO2 T00360014
KRNP 250515Z AUTO 11010KT 10SM OVC010 04/01 A2966 RMK AO2 T00350010
KRNP 250455Z AUTO 12009G16KT 10SM OVC012 03/00 A2968 RMK AO2 T00280003 400350005
KRNP 250435Z AUTO 12013KT 10SM OVC012 03/00 A2970 RMK AO2 T00260000
KRNP 250415Z AUTO 11012G17KT 10SM OVC014 03/00 A2973 RMK AO2 T00250000
KRNP 250355Z AUTO 11012G17KT 10SM OVC014 02/00 A2977 RMK AO2 T00231002
KRNP 250335Z AUTO 11010G16KT 10SM OVC014 02/00 A2980 RMK AO2 T00221003
KRNP 250315Z AUTO 11010G17KT 10SM OVC016 02/00 A2983 RMK AO2 T00221005
KRNP 250256Z AUTO 10011G17KT 10SM BKN016 OVC065 02/00 A2985 RMK AO2 T00211005
KRNP 250235Z AUTO 10010G19KT 10SM BKN016 OVC065 02/00 A2987 RMK AO2 T00221005
KRNP 250215Z AUTO 10008KT 10SM BKN016 OVC021 02/M01 A2990 RMK AO2 T00221006
KRNP 250155Z AUTO 09008G16KT 10SM OVC020 02/M01 A2992 RMK AO2 T00231007
KRNP 250135Z AUTO 10008G14KT 10SM OVC020 02/M01 A2995 RMK AO2 T00231007
KRNP 250115Z AUTO 09009KT 10SM OVC020 02/M01 A2996 RMK AO2 T00231008
KRNP 250055Z AUTO 09008KT 10SM OVC018 02/M01 A2998 RMK AO2 T00231010
KRNP 250036Z AUTO 10008KT 10SM OVC020 02/M01 A3000 RMK AO2 T00221012
KRNP 250015Z AUTO 09008KT 10SM SCT020 02/M01 A3001 RMK AO2 T00201015
KRNP 242355Z AUTO 10009KT 10SM CLR 02/M02 A3001 RMK AO2 T00201017 10035 20020
KRNP 242336Z AUTO 09008KT 10SM CLR 02/M02 A3001 RMK AO2 T00211017
KRNP 242315Z AUTO 09007KT 10SM CLR 02/M01 A3004 RMK AO2 T00231015
KRNP 242255Z AUTO 08005KT 10SM SCT022 03/M01 A3005 RMK AO2 T00251015
KRNP 242236Z AUTO 08008KT 10SM SCT022 SCT095 03/M01 A3006 RMK AO2 T00261015
KRNP 242215Z AUTO 08008KT 10SM BKN022 BKN095 03/M01 A3006 RMK AO2 T00281015
KRNP 242155Z AUTO 10009KT 10SM OVC022 03/M01 A3007 RMK AO2 T00301015
KRNP 242135Z AUTO 09008KT 10SM OVC022 03/M01 A3007 RMK AO2 T00301014
KRNP 242115Z AUTO 09009G14KT 10SM OVC020 03/M01 A3008 RMK AO2 T00301013
KRNP 242055Z AUTO 10010KT 10SM OVC022 03/M01 A3010 RMK AO2 T00321012
KRNP 242035Z AUTO 07009KT 10SM OVC022 03/M01 A3009 RMK AO2 T00331012
KRNP 242015Z AUTO 09008KT 10SM OVC020 03/M01 A3011 RMK AO2 T00321012
KRNP 241955Z AUTO 10009KT 10SM OVC018 03/M01 A3012 RMK AO2 T00311011
KRNP 241935Z AUTO 09009G17KT 10SM OVC018 03/M01 A3011 RMK AO2 T00341008
KRNP 241915Z AUTO 08008KT 050V110 10SM OVC016 03/M01 A3012 RMK AO2 T00271011
KRNP 241855Z AUTO 09010KT 10SM OVC016 03/M01 A3014 RMK AO2 T00281007
KRNP 241835Z AUTO 08007KT 10SM OVC016 02/M01 A3015 RMK AO2 T00231009
KRNP 241815Z AUTO 09009G15KT 10SM OVC016 03/M01 A3017 RMK AO2 T00251010
KRNP 241755Z AUTO 09007KT 10SM OVC016 03/00 A3019 RMK AO2 T00251005 10028 20005
KRNP 241735Z AUTO 08006KT 10SM OVC016 02/M01 A3020 RMK AO2 T00231007
KRNP 241715Z AUTO 08008KT 10SM BKN016 OVC023 03/M01 A3020 RMK AO2 T00251009
KRNP 241655Z AUTO 10008KT 10SM BKN019 OVC024 03/M01 A3022 RMK AO2 T00271009
KRNP 241635Z AUTO 07007KT 10SM BKN019 OVC025 03/M01 A3022 RMK AO2 T00261012
KRNP 241615Z AUTO 06006KT 10SM SCT017 OVC110 02/M01 A3022 RMK AO2 T00231013
KRNP 241555Z AUTO 06006KT 10SM OVC110 02/M01 A3023 RMK AO2 T00221014
KRNP 241535Z AUTO 05006KT 10SM OVC110 02/M01 A3022 RMK AO2 T00201015
KRNP 241515Z AUTO 05006KT 10SM OVC110 02/M01 A3022 RMK AO2 T00201015
KRNP 241455Z AUTO 05004KT 10SM OVC110 02/M01 A3023 RMK AO2 T00181015
KRNP 241435Z AUTO 05005KT 10SM OVC110 02/M02 A3023 RMK AO2 T00171016
KRNP 241415Z AUTO 03004KT 10SM OVC110 02/M01 A3023 RMK AO2 T00151015
KRNP 241355Z AUTO 03003KT 10SM OVC110 01/M01 A3023 RMK AO2 T00121015
KRNP 241335Z AUTO 03003KT 10SM OVC120 01/M01 A3023 RMK AO2 T00101015
KRNP 241315Z AUTO 00000KT 10SM BKN120 01/M02 A3024 RMK AO2 T00071017
KRNP 241255Z AUTO 00000KT 10SM SCT120 01/M02 A3023 RMK AO2 T00051016
KRNP 241235Z AUTO 00000KT 10SM BKN120 01/M02 A3023 RMK AO2 T00061017
KRNP 241215Z AUTO 00000KT 10SM BKN120 01/M02 A3023 RMK AO2 T00071018
KRNP 241155Z AUTO 00000KT 10SM SCT026 OVC120 01/M02 A3024 RMK AO2 T00111017 10026 20010